createdAt,value
2017-10-04T00:01:01.612Z,4.53
2017-10-04T00:03:29.105Z,3.50
2017-10-04T00:05:56.557Z,4.57
2017-10-04T00:08:24.009Z,3.40
2017-10-04T00:10:52.249Z,4.10
2017-10-04T00:13:19.707Z,3.43
2017-10-04T00:15:47.192Z,3.80
2017-10-04T00:18:15.453Z,3.60
2017-10-04T00:20:42.909Z,4.73
2017-10-04T00:23:10.385Z,3.57
2017-10-04T00:25:38.609Z,4.33
2017-10-04T00:28:06.105Z,4.40
2017-10-04T00:30:33.581Z,4.03
2017-10-04T00:33:01.121Z,4.30
2017-10-04T00:35:28.604Z,4.00
2017-10-04T00:37:56.057Z,4.80
2017-10-04T00:40:23.530Z,4.50
2017-10-04T00:42:51.045Z,3.80
2017-10-04T00:45:18.528Z,3.90
2017-10-04T00:47:46.777Z,4.00
2017-10-04T00:50:14.231Z,3.53
2017-10-04T00:52:41.714Z,3.67
2017-10-04T00:55:09.196Z,4.00
2017-10-04T00:57:36.658Z,5.90
2017-10-04T01:00:04.114Z,3.33
2017-10-04T01:02:31.588Z,4.13
2017-10-04T01:04:59.053Z,3.67
2017-10-04T01:07:26.553Z,3.70
2017-10-04T01:09:54.008Z,4.63
2017-10-04T01:12:21.492Z,3.60
2017-10-04T01:14:48.958Z,3.70
2017-10-04T01:17:17.181Z,4.27
2017-10-04T01:19:44.665Z,3.27
2017-10-04T01:22:12.134Z,4.60
2017-10-04T01:24:39.586Z,3.67
2017-10-04T01:27:07.129Z,4.03
2017-10-04T01:29:35.642Z,4.10
2017-10-04T01:32:03.861Z,3.70
2017-10-04T01:34:32.285Z,3.43
2017-10-04T01:36:59.760Z,3.57
2017-10-04T01:39:28.290Z,5.43
2017-10-04T01:41:55.923Z,3.90
2017-10-04T01:44:23.403Z,4.20
2017-10-04T01:46:50.865Z,5.17
2017-10-04T01:49:18.344Z,4.20
2017-10-04T01:51:45.849Z,5.10
2017-10-04T01:54:13.309Z,3.97
2017-10-04T01:56:40.768Z,4.93
2017-10-04T01:59:08.229Z,4.63
2017-10-04T02:01:35.725Z,4.67
2017-10-04T02:04:03.202Z,4.50
2017-10-04T02:06:30.653Z,3.53
2017-10-04T02:08:58.129Z,5.93
2017-10-04T02:11:25.589Z,3.80
2017-10-04T02:13:53.809Z,3.73
2017-10-04T02:16:21.301Z,4.37
2017-10-04T02:18:48.757Z,4.30
2017-10-04T02:21:16.221Z,4.30
2017-10-04T02:23:43.701Z,4.70
2017-10-04T02:26:11.153Z,3.00
2017-10-04T02:28:38.603Z,4.10
2017-10-04T02:31:06.093Z,4.20
2017-10-04T02:33:34.417Z,4.10
2017-10-04T02:36:01.898Z,4.10
2017-10-04T02:38:29.439Z,5.63
2017-10-04T02:40:56.898Z,5.07
2017-10-04T02:43:24.349Z,4.33
2017-10-04T02:45:51.825Z,4.63
2017-10-04T02:48:19.288Z,4.20
2017-10-04T02:50:46.761Z,4.33
2017-10-04T02:53:14.261Z,4.53
2017-10-04T02:55:41.736Z,4.50
2017-10-04T02:58:09.210Z,4.87
2017-10-04T03:00:36.694Z,3.60
2017-10-04T03:03:04.283Z,4.87
2017-10-04T03:05:31.732Z,4.17
2017-10-04T03:07:59.218Z,5.50
2017-10-04T03:10:26.693Z,5.13
2017-10-04T03:12:54.157Z,4.83
2017-10-04T03:15:21.647Z,4.27
2017-10-04T03:17:49.878Z,3.80
2017-10-04T03:20:17.382Z,4.87
2017-10-04T03:22:45.628Z,5.05
2017-10-04T03:25:13.125Z,4.20
2017-10-04T03:27:41.337Z,4.10
2017-10-04T03:30:08.798Z,4.40
2017-10-04T03:32:36.273Z,4.27
2017-10-04T03:35:03.735Z,4.50
2017-10-04T03:37:31.209Z,4.80
2017-10-04T03:39:58.684Z,4.63
2017-10-04T03:42:26.925Z,4.57
2017-10-04T03:44:54.420Z,3.63
2017-10-04T03:47:22.969Z,4.90
2017-10-04T03:49:51.495Z,4.53
2017-10-04T03:52:18.983Z,4.50
2017-10-04T03:54:46.448Z,4.83
2017-10-04T03:57:13.925Z,4.00
2017-10-04T03:59:42.141Z,3.70
2017-10-04T04:02:10.389Z,3.90
2017-10-04T04:04:37.849Z,4.30
2017-10-04T04:07:05.702Z,4.30
2017-10-04T04:09:33.183Z,4.80
2017-10-04T04:12:00.633Z,4.80
2017-10-04T04:14:28.117Z,3.90
2017-10-04T04:16:55.590Z,4.10
2017-10-04T04:19:23.129Z,4.10
2017-10-04T04:21:51.361Z,4.70
2017-10-04T04:24:18.845Z,5.80
2017-10-04T04:26:46.340Z,4.37
2017-10-04T04:29:13.809Z,5.37
2017-10-04T04:31:41.313Z,5.00
2017-10-04T04:34:08.778Z,5.00
2017-10-04T04:36:37.120Z,6.30
2017-10-04T04:39:04.597Z,6.30
2017-10-04T04:41:32.065Z,5.17
2017-10-04T04:43:59.541Z,4.17
2017-10-04T04:46:27.006Z,5.80
2017-10-04T04:48:55.312Z,5.00
2017-10-04T04:51:22.778Z,5.27
2017-10-04T04:53:50.246Z,5.80
2017-10-04T04:56:17.726Z,4.73
2017-10-04T04:58:45.198Z,5.40
2017-10-04T05:01:12.677Z,5.67
2017-10-04T05:03:40.151Z,6.60
2017-10-04T05:06:07.614Z,5.40
2017-10-04T05:08:35.092Z,5.50
2017-10-04T05:11:02.573Z,4.90
2017-10-04T05:13:30.030Z,5.87
2017-10-04T05:15:57.481Z,4.77
2017-10-04T05:18:24.970Z,5.00
2017-10-04T05:20:52.429Z,5.20
2017-10-04T05:23:19.905Z,4.20
2017-10-04T05:25:48.147Z,5.37
2017-10-04T05:28:16.382Z,5.20
2017-10-04T05:30:44.653Z,5.70
2017-10-04T05:33:12.117Z,5.93
2017-10-04T05:35:39.578Z,5.73
2017-10-04T05:38:07.885Z,5.43
2017-10-04T05:40:35.357Z,5.13
2017-10-04T05:43:03.131Z,5.77
2017-10-04T05:45:31.393Z,4.87
2017-10-04T05:47:58.864Z,4.80
2017-10-04T05:50:26.361Z,4.80
2017-10-04T05:52:53.825Z,6.40
2017-10-04T05:55:21.282Z,5.30
2017-10-04T05:57:48.765Z,5.60
2017-10-04T06:00:16.227Z,6.20
2017-10-04T06:02:43.681Z,4.70
2017-10-04T06:05:11.161Z,5.70
2017-10-04T06:07:38.617Z,6.00
2017-10-04T06:10:06.089Z,4.80
2017-10-04T06:12:33.549Z,5.63
2017-10-04T06:15:01.026Z,5.13
2017-10-04T06:17:28.513Z,5.27
2017-10-04T06:19:55.998Z,5.57
2017-10-04T06:22:23.467Z,4.10
2017-10-04T06:24:50.926Z,3.93
2017-10-04T06:27:18.410Z,6.00
2017-10-04T06:29:46.658Z,4.50
2017-10-04T06:32:14.107Z,4.37
2017-10-04T06:34:42.373Z,6.20
2017-10-04T06:37:09.828Z,5.40
2017-10-04T06:39:37.354Z,4.83
2017-10-04T06:42:05.601Z,5.33
2017-10-04T06:44:33.050Z,4.60
2017-10-04T06:47:00.533Z,5.00
2017-10-04T06:49:28.751Z,6.07
2017-10-04T06:51:56.215Z,4.90
2017-10-04T06:54:23.704Z,5.50
2017-10-04T06:56:51.155Z,4.50
2017-10-04T06:59:18.612Z,6.10
2017-10-04T07:01:46.109Z,5.63
2017-10-04T07:04:13.591Z,5.83
2017-10-04T07:06:41.054Z,3.90
2017-10-04T07:09:08.537Z,5.20
2017-10-04T07:11:35.992Z,5.63
2017-10-04T07:14:03.472Z,5.20
2017-10-04T07:16:30.926Z,5.63
2017-10-04T07:18:58.413Z,5.47
2017-10-04T07:21:26.629Z,5.17
2017-10-04T07:23:54.077Z,6.43
2017-10-04T07:26:21.577Z,5.70
2017-10-04T07:28:49.029Z,5.53
2017-10-04T07:31:16.494Z,6.67
2017-10-04T07:33:43.969Z,5.90
2017-10-04T07:36:11.429Z,4.67
2017-10-04T07:38:40.648Z,5.97
2017-10-04T07:41:08.127Z,6.40
2017-10-04T07:43:35.952Z,5.50
2017-10-04T07:46:04.189Z,6.20
2017-10-04T07:48:31.642Z,4.97
2017-10-04T07:50:59.112Z,6.20
2017-10-04T07:53:26.568Z,5.73
2017-10-04T07:55:54.049Z,6.23
2017-10-04T07:58:21.543Z,6.00
2017-10-04T08:00:48.996Z,5.50
2017-10-04T08:03:16.482Z,4.50
2017-10-04T08:05:43.953Z,5.40
2017-10-04T08:08:11.428Z,5.87
2017-10-04T08:10:38.893Z,4.93
2017-10-04T08:13:06.344Z,6.10
2017-10-04T08:15:33.803Z,5.17
2017-10-04T08:18:01.273Z,5.00
2017-10-04T08:20:28.737Z,5.13
2017-10-04T08:22:56.203Z,5.43
2017-10-04T08:25:23.677Z,4.77
2017-10-04T08:27:51.919Z,6.30
2017-10-04T08:30:19.413Z,4.57
2017-10-04T08:32:46.894Z,5.47
2017-10-04T08:35:14.374Z,5.17
2017-10-04T08:37:41.866Z,4.00
2017-10-04T08:40:10.101Z,4.83
2017-10-04T08:42:37.551Z,4.80
2017-10-04T08:45:05.033Z,5.50
2017-10-04T08:47:44.182Z,3.10
2017-10-04T08:50:12.447Z,4.70
2017-10-04T08:52:39.921Z,6.40
2017-10-04T08:55:07.397Z,4.80
2017-10-04T08:57:35.617Z,5.10
2017-10-04T09:00:03.113Z,4.80
2017-10-04T09:02:31.346Z,6.17
2017-10-04T09:05:06.499Z,5.30
2017-10-04T09:07:33.980Z,5.40
2017-10-04T09:10:01.451Z,5.43
2017-10-04T09:12:28.969Z,5.60
2017-10-04T09:14:56.421Z,5.27
2017-10-04T09:17:23.864Z,6.00
2017-10-04T09:19:51.410Z,4.40
2017-10-04T09:22:18.869Z,4.90
2017-10-04T09:24:46.344Z,5.23
2017-10-04T09:27:13.834Z,4.20
2017-10-04T09:29:42.205Z,6.40
2017-10-04T09:32:09.701Z,5.47
2017-10-04T09:34:37.913Z,4.67
2017-10-04T09:37:05.387Z,5.30
2017-10-04T09:39:32.873Z,3.10
2017-10-04T09:42:00.321Z,4.17
2017-10-04T09:44:27.785Z,4.07
2017-10-04T09:46:55.253Z,4.00
2017-10-04T09:49:22.749Z,3.90
2017-10-04T09:51:50.242Z,3.93
2017-10-04T09:54:17.705Z,3.40
2017-10-04T09:56:45.181Z,4.00
2017-10-04T09:59:12.912Z,4.57
2017-10-04T10:01:40.377Z,4.03
2017-10-04T10:04:07.853Z,4.30
2017-10-04T10:06:35.322Z,4.13
2017-10-04T10:09:02.782Z,4.70
2017-10-04T10:11:30.246Z,3.73
2017-10-04T10:13:57.741Z,4.60
2017-10-04T10:16:25.193Z,4.33
2017-10-04T10:18:52.658Z,3.90
2017-10-04T10:21:20.141Z,3.80
2017-10-04T10:23:47.589Z,5.00
2017-10-04T10:26:15.089Z,4.60
2017-10-04T10:28:43.468Z,3.37
2017-10-04T10:31:10.919Z,3.27
2017-10-04T10:33:38.401Z,4.37
2017-10-04T10:36:06.617Z,3.73
2017-10-04T10:38:34.069Z,2.70
2017-10-04T10:41:01.541Z,3.07
2017-10-04T10:43:29.005Z,2.60
2017-10-04T10:45:56.498Z,3.03
2017-10-04T10:48:23.967Z,3.80
2017-10-04T10:50:52.182Z,3.10
2017-10-04T10:53:19.645Z,2.03
2017-10-04T10:55:47.170Z,2.03
2017-10-04T10:58:15.398Z,3.50
2017-10-04T11:00:42.874Z,2.57
2017-10-04T11:03:10.340Z,2.47
2017-10-04T11:05:37.842Z,2.97
2017-10-04T11:08:05.289Z,2.03
2017-10-04T11:10:32.745Z,3.43
2017-10-04T11:13:00.206Z,4.00
2017-10-04T11:15:28.450Z,3.70
2017-10-04T11:17:55.921Z,3.07
2017-10-04T11:20:24.193Z,2.78
2017-10-04T11:22:52.418Z,2.50
2017-10-04T11:25:19.881Z,2.90
2017-10-04T11:27:47.364Z,2.53
2017-10-04T11:30:14.842Z,3.17
2017-10-04T11:32:43.100Z,3.67
2017-10-04T11:35:10.586Z,4.30
2017-10-04T11:37:38.793Z,2.70
2017-10-04T11:40:06.237Z,2.30
2017-10-04T11:42:33.713Z,2.13
2017-10-04T11:45:01.359Z,2.40
2017-10-04T11:47:28.852Z,1.70
2017-10-04T11:49:56.309Z,2.47
2017-10-04T11:52:24.525Z,1.97
2017-10-04T11:54:52.009Z,2.53
2017-10-04T11:57:19.494Z,2.30
2017-10-04T11:59:47.017Z,1.90
2017-10-04T12:02:16.066Z,2.93
2017-10-04T12:04:43.513Z,2.90
2017-10-04T12:07:10.993Z,1.50
2017-10-04T12:09:38.453Z,1.87
2017-10-04T12:12:06.064Z,2.40
2017-10-04T12:14:33.557Z,1.60
2017-10-04T12:17:01.188Z,2.67
2017-10-04T12:19:28.650Z,2.80
2017-10-04T12:21:56.132Z,2.43
2017-10-04T12:24:23.572Z,1.90
2017-10-04T12:26:51.029Z,1.50
2017-10-04T12:29:18.561Z,2.73
2017-10-04T12:31:46.046Z,2.00
2017-10-04T12:34:13.525Z,2.50
2017-10-04T12:36:40.982Z,1.90
2017-10-04T12:39:08.433Z,3.03
2017-10-04T12:41:35.906Z,2.80
2017-10-04T12:44:03.358Z,2.93
2017-10-04T12:46:30.830Z,2.50
2017-10-04T12:48:58.293Z,3.35
2017-10-04T12:51:25.810Z,3.37
2017-10-04T12:53:53.273Z,2.20
2017-10-04T12:56:20.734Z,2.80
2017-10-04T12:58:48.265Z,2.27
2017-10-04T13:01:16.428Z,2.40
2017-10-04T13:03:43.901Z,2.70
2017-10-04T13:06:11.454Z,3.43
2017-10-04T13:08:39.670Z,3.40
2017-10-04T13:11:07.157Z,3.70
2017-10-04T13:13:34.609Z,2.80
2017-10-04T13:16:02.057Z,3.13
2017-10-04T13:18:29.541Z,2.90
2017-10-04T13:20:56.996Z,2.03
2017-10-04T13:23:24.453Z,2.60
2017-10-04T13:25:52.716Z,2.43
2017-10-04T13:28:20.173Z,2.80
2017-10-04T13:30:47.664Z,1.57
2017-10-04T13:33:15.925Z,2.37
2017-10-04T13:35:43.369Z,1.77
2017-10-04T13:38:10.837Z,2.03
2017-10-04T13:40:38.326Z,1.37
2017-10-04T13:43:05.809Z,2.23
2017-10-04T13:45:33.278Z,2.00
2017-10-04T13:48:00.732Z,2.10
2017-10-04T13:50:28.217Z,1.90
2017-10-04T13:52:55.696Z,3.70
2017-10-04T13:55:29.845Z,5.20
2017-10-04T13:57:57.338Z,6.03
2017-10-04T14:00:24.842Z,4.00
2017-10-04T14:02:53.086Z,4.03
2017-10-04T14:05:20.563Z,2.73
2017-10-04T14:07:48.813Z,2.67
2017-10-04T14:10:16.261Z,3.13
2017-10-04T14:12:43.737Z,2.30
2017-10-04T14:15:11.233Z,2.67
2017-10-04T14:17:38.712Z,1.90
2017-10-04T14:20:06.223Z,2.47
2017-10-04T14:22:33.701Z,2.43
2017-10-04T14:25:01.930Z,2.80
2017-10-04T14:27:29.416Z,2.73
2017-10-04T14:29:57.653Z,1.87
2017-10-04T14:32:25.869Z,2.37
2017-10-04T14:34:53.349Z,2.30
2017-10-04T14:37:20.808Z,1.90
2017-10-04T14:39:48.265Z,1.63
2017-10-04T14:42:15.753Z,2.87
2017-10-04T14:44:43.209Z,3.80
2017-10-04T14:47:10.666Z,2.87
2017-10-04T14:49:39.227Z,2.03
2017-10-04T14:52:06.689Z,2.87
2017-10-04T14:54:34.161Z,2.27
2017-10-04T14:57:01.615Z,2.30
2017-10-04T14:59:29.063Z,1.37
2017-10-04T15:01:56.554Z,1.50
2017-10-04T15:04:24.008Z,2.10
2017-10-04T15:06:51.458Z,1.70
2017-10-04T15:09:18.944Z,1.43
2017-10-04T15:11:46.397Z,1.57
2017-10-04T15:14:13.854Z,1.83
2017-10-04T15:16:41.345Z,2.23
2017-10-04T15:19:09.568Z,1.70
2017-10-04T15:21:37.057Z,2.10
2017-10-04T15:24:04.518Z,1.93
2017-10-04T15:26:31.995Z,2.13
2017-10-04T15:28:59.466Z,1.30
2017-10-04T15:31:26.917Z,1.80
2017-10-04T15:33:54.403Z,1.57
2017-10-04T15:36:21.858Z,3.70
2017-10-04T15:38:49.305Z,3.13
2017-10-04T15:41:16.788Z,1.70
2017-10-04T15:43:44.247Z,1.93
2017-10-04T15:46:11.706Z,1.80
2017-10-04T15:48:39.233Z,1.63
2017-10-04T15:51:07.477Z,2.10
2017-10-04T15:53:34.981Z,5.63
2017-10-04T15:56:02.465Z,2.00
2017-10-04T15:58:29.920Z,2.27
2017-10-04T16:00:57.440Z,4.97
2017-10-04T16:03:25.672Z,2.00
2017-10-04T16:05:53.146Z,1.60
2017-10-04T16:08:20.597Z,1.60
2017-10-04T16:10:48.320Z,1.40
2017-10-04T16:13:15.872Z,2.37
2017-10-04T16:15:43.324Z,1.80
2017-10-04T16:18:10.817Z,2.50
2017-10-04T16:20:38.312Z,2.13
2017-10-04T16:23:05.781Z,1.50
2017-10-04T16:25:33.234Z,1.90
2017-10-04T16:28:00.721Z,1.67
2017-10-04T16:30:28.198Z,2.60
2017-10-04T16:32:55.672Z,8.43
2017-10-04T16:35:23.240Z,2.43
2017-10-04T16:37:50.715Z,2.27
2017-10-04T16:40:18.504Z,2.90
2017-10-04T16:42:45.993Z,1.87
2017-10-04T16:45:13.449Z,2.42
2017-10-04T16:47:40.938Z,1.90
2017-10-04T16:50:08.390Z,1.77
2017-10-04T16:52:35.848Z,2.90
2017-10-04T16:55:03.320Z,1.83
2017-10-04T16:57:30.764Z,1.90
2017-10-04T16:59:58.253Z,2.60
2017-10-04T17:02:25.719Z,1.90
2017-10-04T17:04:53.177Z,2.03
2017-10-04T17:07:21.577Z,3.78
2017-10-04T17:09:49.113Z,2.53
2017-10-04T17:12:17.330Z,2.20
2017-10-04T17:14:44.826Z,2.27
2017-10-04T17:17:12.449Z,1.70
2017-10-04T17:19:39.952Z,2.13
2017-10-04T17:22:07.863Z,2.50
2017-10-04T17:24:36.294Z,2.40
2017-10-04T17:27:03.835Z,2.97
2017-10-04T17:29:31.543Z,1.77
2017-10-04T17:31:59.098Z,2.20
2017-10-04T17:34:27.630Z,3.17
2017-10-04T17:36:55.515Z,4.33
2017-10-04T17:39:23.340Z,2.47
2017-10-04T17:41:51.201Z,2.33
2017-10-04T17:44:19.445Z,2.90
2017-10-04T17:46:46.944Z,2.40
2017-10-04T17:49:14.416Z,2.47
2017-10-04T17:51:42.726Z,2.77
2017-10-04T17:54:10.197Z,3.63
2017-10-04T17:56:37.714Z,2.70
2017-10-04T17:59:05.198Z,5.83
2017-10-04T18:01:32.685Z,3.47
2017-10-04T18:04:00.133Z,7.10
2017-10-04T18:06:27.608Z,3.70
2017-10-04T18:08:55.885Z,3.20
2017-10-04T18:11:23.363Z,3.03
2017-10-04T18:13:51.761Z,2.92
2017-10-04T18:16:19.387Z,2.57
2017-10-04T18:18:47.634Z,2.77
2017-10-04T18:21:15.121Z,3.00
2017-10-04T18:23:42.574Z,1.93
2017-10-04T18:26:10.058Z,2.07
2017-10-04T18:28:37.603Z,2.93
2017-10-04T18:31:05.114Z,2.80
2017-10-04T18:33:32.569Z,3.70
2017-10-04T18:36:00.046Z,2.57
2017-10-04T18:38:27.772Z,4.50
2017-10-04T18:40:55.326Z,2.47
2017-10-04T18:43:22.935Z,3.17
2017-10-04T18:45:50.436Z,3.60
2017-10-04T18:48:17.957Z,2.20
2017-10-04T18:50:45.562Z,2.20
2017-10-04T18:53:13.038Z,3.13
2017-10-04T18:55:40.544Z,3.00
2017-10-04T18:58:09.029Z,3.40
2017-10-04T19:00:36.621Z,3.03
2017-10-04T19:03:04.166Z,2.43
2017-10-04T19:05:31.698Z,3.20
2017-10-04T19:07:59.173Z,3.20
2017-10-04T19:10:27.064Z,3.00
2017-10-04T19:12:55.578Z,2.23
2017-10-04T19:15:23.464Z,2.90
2017-10-04T19:17:51.824Z,3.40
2017-10-04T19:20:19.722Z,3.00
2017-10-04T19:22:47.252Z,4.00
2017-10-04T19:25:14.860Z,3.13
2017-10-04T19:27:42.500Z,3.20
2017-10-04T19:30:10.417Z,2.40
2017-10-04T19:32:38.217Z,2.70
2017-10-04T19:35:05.695Z,2.30
2017-10-04T19:37:33.172Z,3.30
2017-10-04T19:40:00.657Z,3.07
2017-10-04T19:42:28.140Z,3.10
2017-10-04T19:44:55.600Z,3.10
2017-10-04T19:47:23.980Z,3.27
2017-10-04T19:49:51.457Z,3.30
2017-10-04T19:52:18.908Z,2.67
2017-10-04T19:54:46.415Z,3.13
2017-10-04T19:57:15.256Z,3.70
2017-10-04T19:59:43.032Z,3.40
2017-10-04T20:02:10.537Z,2.20
2017-10-04T20:04:38.761Z,2.90
2017-10-04T20:07:06.232Z,3.55
2017-10-04T20:09:33.735Z,3.00
2017-10-04T20:12:01.184Z,2.47
2017-10-04T20:14:29.420Z,2.90
2017-10-04T20:16:56.929Z,1.90
2017-10-04T20:19:24.942Z,2.23
2017-10-04T20:21:52.442Z,3.30
2017-10-04T20:24:20.661Z,1.53
2017-10-04T20:26:48.146Z,2.73
2017-10-04T20:29:15.665Z,2.77
2017-10-04T20:31:43.188Z,3.43
2017-10-04T20:34:10.658Z,3.73
2017-10-04T20:36:38.114Z,3.00
2017-10-04T20:39:05.887Z,3.20
2017-10-04T20:41:34.093Z,2.87
2017-10-04T20:44:01.549Z,3.50
2017-10-04T20:46:29.061Z,3.77
2017-10-04T20:48:56.547Z,2.33
2017-10-04T20:51:24.169Z,2.90
2017-10-04T20:53:51.637Z,3.90
2017-10-04T20:56:19.088Z,3.27
2017-10-04T20:58:46.565Z,3.17
2017-10-04T21:01:14.781Z,3.67
2017-10-04T21:03:42.252Z,3.00
2017-10-04T21:06:09.714Z,4.60
2017-10-04T21:08:38.144Z,4.17
2017-10-04T21:11:06.365Z,2.10
2017-10-04T21:13:33.830Z,4.27
2017-10-04T21:16:01.310Z,4.03
2017-10-04T21:18:28.776Z,3.80
2017-10-04T21:20:56.257Z,4.50
2017-10-04T21:23:24.652Z,5.63
2017-10-04T21:25:52.118Z,3.40
2017-10-04T21:28:19.618Z,4.13
2017-10-04T21:30:47.074Z,5.17
2017-10-04T21:33:14.562Z,4.77
2017-10-04T21:35:42.020Z,3.83
2017-10-04T21:38:10.281Z,4.70
2017-10-04T21:40:37.749Z,4.40
2017-10-04T21:43:05.973Z,4.28
2017-10-04T21:45:33.446Z,4.63
2017-10-04T21:48:00.912Z,4.10
2017-10-04T21:50:28.397Z,5.10
2017-10-04T21:52:56.633Z,3.63
2017-10-04T21:55:24.086Z,4.80
2017-10-04T21:57:51.562Z,4.80
2017-10-04T22:00:19.054Z,4.47
2017-10-04T22:02:47.284Z,4.40
2017-10-04T22:05:14.744Z,5.40
2017-10-04T22:07:42.222Z,4.90
2017-10-04T22:10:09.705Z,4.37
2017-10-04T22:12:37.950Z,4.80
2017-10-04T22:15:05.437Z,5.33
2017-10-04T22:17:33.649Z,4.97
2017-10-04T22:20:01.186Z,4.73
2017-10-04T22:22:28.682Z,5.23
2017-10-04T22:24:56.137Z,5.70
2017-10-04T22:27:23.585Z,4.57
2017-10-04T22:29:51.057Z,4.10
2017-10-04T22:32:18.530Z,4.27
2017-10-04T22:34:45.985Z,5.60
2017-10-04T22:37:13.467Z,2.87
2017-10-04T22:39:40.924Z,3.80
2017-10-04T22:42:08.412Z,3.60
2017-10-04T22:44:35.895Z,3.90
2017-10-04T22:47:03.349Z,2.90
2017-10-04T22:49:30.869Z,3.60
2017-10-04T22:51:59.116Z,4.30
2017-10-04T22:54:26.573Z,4.90
2017-10-04T22:56:54.038Z,4.47
2017-10-04T22:59:21.513Z,5.00
2017-10-04T23:01:49.769Z,3.70
2017-10-04T23:04:17.225Z,4.93
2017-10-04T23:06:45.451Z,4.50
2017-10-04T23:09:12.925Z,4.47
2017-10-04T23:11:40.411Z,5.03
2017-10-04T23:14:07.865Z,4.60
2017-10-04T23:16:35.365Z,4.67
2017-10-04T23:19:03.639Z,4.57
2017-10-04T23:21:31.853Z,4.83
2017-10-04T23:23:59.331Z,4.23
2017-10-04T23:26:26.925Z,5.15
2017-10-04T23:28:54.422Z,5.20
2017-10-04T23:31:21.889Z,5.30
2017-10-04T23:33:49.371Z,5.93
2017-10-04T23:36:16.862Z,5.70
2017-10-04T23:38:44.316Z,7.23
2017-10-04T23:41:11.798Z,6.00
2017-10-04T23:43:40.025Z,5.90
2017-10-04T23:46:07.502Z,7.37
2017-10-04T23:48:34.978Z,6.20
2017-10-04T23:51:03.217Z,5.53
2017-10-04T23:53:30.704Z,5.87
2017-10-04T23:55:58.152Z,4.40
2017-10-04T23:58:25.614Z,6.37
